Time;durP1;ratioP1;P1;durP2;ratioP2;P2;SDS_P1;SDS_P2;PMS_P1;PMS_P2;Temp;Humidity;BMP_temperature;BMP_pressure;BME280_temperature;BME280_humidity;BME280_pressure;Samples;Min_cycle;Max_cycle;Signal;HPM_P1;HPM_P2
2023/10/07 00:03:01;;;;;;;7.50;3.92;;;;;;;;;;4919180;29;20043;-59
2023/10/07 00:05:32;;;;;;;10.68;3.97;;;;;;;;;;4916662;29;20039;-59
2023/10/07 00:08:00;;;;;;;9.43;3.65;;;;;;;;;;4912876;29;20088;-58
2023/10/07 00:10:30;;;;;;;12.30;4.50;;;;;;;;;;4924052;29;20055;-57
2023/10/07 00:13:00;;;;;;;8.77;3.97;;;;;;;;;;4921342;29;20123;-58
2023/10/07 00:15:29;;;;;;;9.15;4.40;;;;;;;;;;4916728;29;20028;-59
2023/10/07 00:18:10;;;;;;;12.93;4.45;;;;;;;;;;4913820;29;20044;-58
2023/10/07 00:20:36;;;;;;;8.70;3.72;;;;;;;;;;4900867;29;20112;-57
2023/10/07 00:23:06;;;;;;;8.00;3.97;;;;;;;;;;4915363;29;20082;-57
2023/10/07 00:25:32;;;;;;;12.43;4.47;;;;;;;;;;4898833;29;20062;-57
2023/10/07 00:27:58;;;;;;;8.75;4.35;;;;;;;;;;4914980;29;20418;-58
2023/10/07 00:30:27;;;;;;;7.65;4.20;;;;;;;;;;4914272;29;20119;-58
2023/10/07 00:32:55;;;;;;;9.70;4.05;;;;;;;;;;4914807;29;20169;-58
2023/10/07 00:35:23;;;;;;;11.43;4.38;;;;;;;;;;4916204;29;20108;-58
2023/10/07 00:37:48;;;;;;;11.20;4.68;;;;;;;;;;4912882;29;20071;-56
2023/10/07 00:40:14;;;;;;;10.15;4.65;;;;;;;;;;4916763;29;20071;-57
2023/10/07 00:42:45;;;;;;;13.25;4.10;;;;;;;;;;4913296;29;20058;-58
2023/10/07 00:45:20;;;;;;;12.23;4.55;;;;;;;;;;4899066;29;20036;-57
2023/10/07 00:47:49;;;;;;;8.95;3.88;;;;;;;;;;4914195;29;20061;-59
2023/10/07 00:50:16;;;;;;;10.27;4.10;;;;;;;;;;4913420;29;20047;-57
2023/10/07 00:55:27;;;;;;;14.52;4.30;;;;;;;;;;4915788;29;20044;-58
2023/10/07 00:58:03;;;;;;;8.30;3.97;;;;;;;;;;4914121;29;20111;-57
2023/10/07 01:00:42;;;;;;;7.93;4.10;;;;;;;;;;4914033;29;20386;-58
2023/10/07 01:05:53;;;;;;;8.63;4.03;;;;;;;;;;4917360;29;20128;-59
2023/10/07 01:08:20;;;;;;;7.47;3.92;;;;;;;;;;4914252;29;20036;-56
2023/10/07 01:10:54;;;;;;;9.50;3.67;;;;;;;;;;4925197;29;20081;-56
2023/10/07 01:13:29;;;;;;;10.65;3.65;;;;;;;;;;4930239;29;20377;-56
2023/10/07 01:15:55;;;;;;;10.23;4.05;;;;;;;;;;4914977;29;20547;-57
2023/10/07 01:18:24;;;;;;;7.60;4.00;;;;;;;;;;4918775;29;20035;-58
2023/10/07 01:23:19;;;;;;;7.55;3.97;;;;;;;;;;4930972;29;20039;-58
2023/10/07 01:25:50;;;;;;;7.43;4.15;;;;;;;;;;4917712;29;20039;-58
2023/10/07 01:28:15;;;;;;;7.68;3.67;;;;;;;;;;4931626;29;20042;-57
2023/10/07 01:30:59;;;;;;;12.93;3.80;;;;;;;;;;4926810;29;20032;-58
2023/10/07 01:33:34;;;;;;;7.82;3.35;;;;;;;;;;4932039;29;20031;-58
2023/10/07 01:36:10;;;;;;;11.07;4.05;;;;;;;;;;4929384;29;20047;-58
2023/10/07 01:38:44;;;;;;;9.18;4.20;;;;;;;;;;4896512;29;20036;-58
2023/10/07 01:41:20;;;;;;;11.52;4.30;;;;;;;;;;4925592;29;20488;-59
2023/10/07 01:44:05;;;;;;;7.70;4.00;;;;;;;;;;4931561;29;20545;-58
2023/10/07 01:46:32;;;;;;;12.00;4.10;;;;;;;;;;4929731;29;20460;-59
2023/10/07 01:49:01;;;;;;;9.95;4.20;;;;;;;;;;4933557;29;20024;-58
2023/10/07 01:51:30;;;;;;;7.93;3.97;;;;;;;;;;4930154;29;20062;-57
2023/10/07 01:53:58;;;;;;;10.23;4.55;;;;;;;;;;4932186;29;20046;-58
2023/10/07 01:56:29;;;;;;;10.40;4.20;;;;;;;;;;4910356;29;20040;-58
2023/10/07 01:58:57;;;;;;;11.98;4.07;;;;;;;;;;4933479;29;20476;-55
2023/10/07 02:01:28;;;;;;;9.95;3.80;;;;;;;;;;4928391;29;20028;-56
2023/10/07 02:04:00;;;;;;;10.82;4.50;;;;;;;;;;4929138;29;20465;-56
2023/10/07 02:06:26;;;;;;;12.90;4.45;;;;;;;;;;4927489;29;20088;-56
2023/10/07 02:08:57;;;;;;;10.32;4.85;;;;;;;;;;4932409;29;20131;-56
2023/10/07 02:11:28;;;;;;;9.85;4.55;;;;;;;;;;4932196;29;20497;-57
2023/10/07 02:13:55;;;;;;;;;;;;;;;;;;4924620;29;20044;-57
2023/10/07 02:16:20;;;;;;;9.90;4.68;;;;;;;;;;4932387;29;19922;-58
2023/10/07 02:18:47;;;;;;;10.73;4.70;;;;;;;;;;4932412;29;20465;-57
2023/10/07 02:21:16;;;;;;;10.98;5.20;;;;;;;;;;4911135;29;20031;-60
2023/10/07 02:23:44;;;;;;;14.15;5.30;;;;;;;;;;4925935;29;20040;-57
2023/10/07 02:26:18;;;;;;;10.55;5.00;;;;;;;;;;4906975;29;20509;-57
2023/10/07 02:28:44;;;;;;;9.80;4.18;;;;;;;;;;4929550;29;20036;-57
2023/10/07 02:31:15;;;;;;;11.60;5.40;;;;;;;;;;4914664;29;20039;-59
2023/10/07 02:33:45;;;;;;;;;;;;;;;;;;4933172;29;20067;-58
2023/10/07 02:36:12;;;;;;;11.93;4.70;;;;;;;;;;4934089;29;19919;-57
2023/10/07 02:38:41;;;;;;;11.70;5.00;;;;;;;;;;4937825;29;20031;-56
2023/10/07 02:41:19;;;;;;;10.25;5.05;;;;;;;;;;4936445;29;20050;-58
2023/10/07 02:43:49;;;;;;;16.00;4.88;;;;;;;;;;4933427;29;20476;-58
2023/10/07 02:46:37;;;;;;;10.98;5.15;;;;;;;;;;4937438;29;20382;-59
2023/10/07 02:49:05;;;;;;;9.73;5.03;;;;;;;;;;4935952;29;20657;-58
2023/10/07 02:51:32;;;;;;;10.15;5.72;;;;;;;;;;4924300;29;20038;-58
2023/10/07 02:54:17;;;;;;;9.32;5.20;;;;;;;;;;4917689;29;20032;-58
2023/10/07 02:56:44;;;;;;;14.68;4.97;;;;;;;;;;4932256;29;20168;-59
2023/10/07 02:59:25;;;;;;;13.27;5.72;;;;;;;;;;4936551;29;20067;-58
2023/10/07 03:04:36;;;;;;;13.00;5.93;;;;;;;;;;4924714;29;20416;-56
2023/10/07 03:07:13;;;;;;;14.95;6.40;;;;;;;;;;4931612;29;20118;-60
2023/10/07 03:09:43;;;;;;;12.63;6.50;;;;;;;;;;4936912;29;20024;-59
2023/10/07 03:12:23;;;;;;;12.27;6.75;;;;;;;;;;4934855;29;20533;-59
2023/10/07 03:14:51;;;;;;;14.85;6.53;;;;;;;;;;4916421;29;20397;-59
2023/10/07 03:17:18;;;;;;;12.13;6.40;;;;;;;;;;4920461;29;20047;-59
2023/10/07 03:19:58;;;;;;;15.40;7.20;;;;;;;;;;4925131;29;20031;-57
2023/10/07 03:22:32;;;;;;;13.88;7.10;;;;;;;;;;4929273;29;20632;-57
2023/10/07 03:25:01;;;;;;;15.27;7.18;;;;;;;;;;4915641;29;20036;-58
2023/10/07 03:27:38;;;;;;;16.45;7.18;;;;;;;;;;4918677;29;20040;-57
2023/10/07 03:30:15;;;;;;;15.60;6.95;;;;;;;;;;4929855;29;20028;-58
2023/10/07 03:32:57;;;;;;;13.52;7.00;;;;;;;;;;4933339;29;20115;-57
2023/10/07 03:38:09;;;;;;;15.35;7.75;;;;;;;;;;4933700;29;20046;-59
2023/10/07 03:40:36;;;;;;;21.27;7.65;;;;;;;;;;4936385;29;20464;-59
2023/10/07 03:43:01;;;;;;;12.95;7.50;;;;;;;;;;4933372;29;20051;-59
2023/10/07 03:45:30;;;;;;;12.63;7.10;;;;;;;;;;4932832;29;20035;-60
2023/10/07 03:47:57;;;;;;;14.27;8.23;;;;;;;;;;4916274;29;20477;-58
2023/10/07 03:50:34;;;;;;;17.95;8.13;;;;;;;;;;4930874;29;20034;-59
2023/10/07 03:53:01;;;;;;;16.95;6.82;;;;;;;;;;4934749;29;20032;-59
2023/10/07 03:55:27;;;;;;;15.85;8.48;;;;;;;;;;4934743;29;20129;-59
2023/10/07 03:57:53;;;;;;;19.45;8.55;;;;;;;;;;4932941;29;20112;-58
2023/10/07 04:00:19;;;;;;;16.40;8.15;;;;;;;;;;4934370;29;20036;-58
2023/10/07 04:02:45;;;;;;;18.33;9.05;;;;;;;;;;4932683;29;20062;-61
2023/10/07 04:05:12;;;;;;;17.63;9.18;;;;;;;;;;4932505;29;20393;-59
2023/10/07 04:07:39;;;;;;;13.90;8.25;;;;;;;;;;4933077;29;20042;-59
2023/10/07 04:10:21;;;;;;;20.92;9.02;;;;;;;;;;4935182;29;20241;-58
2023/10/07 04:12:47;;;;;;;19.05;9.45;;;;;;;;;;4929981;29;20400;-57
2023/10/07 04:15:17;;;;;;;18.80;9.20;;;;;;;;;;4934277;29;20039;-58
2023/10/07 04:17:44;;;;;;;17.27;9.68;;;;;;;;;;4934556;29;20043;-58
2023/10/07 04:20:22;;;;;;;20.42;9.30;;;;;;;;;;4933633;29;20047;-58
2023/10/07 04:22:57;;;;;;;20.48;9.77;;;;;;;;;;4930932;29;20036;-58
2023/10/07 04:25:27;;;;;;;16.60;8.70;;;;;;;;;;4933868;29;20694;-57
2023/10/07 04:27:54;;;;;;;18.88;9.75;;;;;;;;;;4931849;29;20063;-58
2023/10/07 04:30:28;;;;;;;20.65;10.13;;;;;;;;;;4926552;29;20381;-60
2023/10/07 04:33:00;;;;;;;21.13;9.48;;;;;;;;;;4931029;29;20035;-58
2023/10/07 04:35:26;;;;;;;18.20;9.57;;;;;;;;;;4933456;29;20381;-57
2023/10/07 04:37:59;;;;;;;22.00;10.40;;;;;;;;;;4930386;29;20036;-57
2023/10/07 04:45:49;;;;;;;16.80;9.38;;;;;;;;;;4934896;29;20043;-57
2023/10/07 04:51:04;;;;;;;18.35;10.63;;;;;;;;;;4929565;29;20190;-59
2023/10/07 04:53:39;;;;;;;19.30;10.30;;;;;;;;;;4919366;29;20036;-58
2023/10/07 04:56:09;;;;;;;23.00;10.75;;;;;;;;;;4915804;29;20032;-58
2023/10/07 04:58:39;;;;;;;18.67;11.05;;;;;;;;;;4915411;29;20047;-58
2023/10/07 05:01:22;;;;;;;20.52;10.27;;;;;;;;;;4927218;29;20043;-59
2023/10/07 05:03:55;;;;;;;23.63;11.15;;;;;;;;;;4935077;29;20035;-59
2023/10/07 05:06:27;;;;;;;21.77;11.40;;;;;;;;;;4935481;29;20031;-58
2023/10/07 05:08:52;;;;;;;17.10;11.48;;;;;;;;;;4923263;29;20035;-57
2023/10/07 05:11:18;;;;;;;21.55;10.50;;;;;;;;;;4928162;29;20456;-56
2023/10/07 05:13:46;;;;;;;21.67;10.90;;;;;;;;;;4935130;29;20035;-57
2023/10/07 05:16:12;;;;;;;21.63;11.40;;;;;;;;;;4934304;29;20824;-58
2023/10/07 05:18:40;;;;;;;19.58;11.02;;;;;;;;;;4950160;29;20043;-55
2023/10/07 05:21:06;;;;;;;20.23;11.13;;;;;;;;;;4940723;29;20028;-57
2023/10/07 05:23:33;;;;;;;21.40;11.85;;;;;;;;;;4934373;29;20444;-56
2023/10/07 05:26:03;;;;;;;21.35;11.60;;;;;;;;;;4934119;29;20088;-59
2023/10/07 05:28:32;;;;;;;20.75;11.38;;;;;;;;;;4934504;29;20032;-58
2023/10/07 05:31:00;;;;;;;18.92;11.20;;;;;;;;;;4933916;29;20433;-58
2023/10/07 05:33:28;;;;;;;29.05;11.63;;;;;;;;;;4917801;29;20042;-57
2023/10/07 05:36:04;;;;;;;20.48;12.13;;;;;;;;;;4937378;29;20102;-57
2023/10/07 05:38:30;;;;;;;22.95;11.30;;;;;;;;;;4953997;29;20106;-59
2023/10/07 05:41:00;;;;;;;22.20;11.55;;;;;;;;;;4935593;29;20037;-59
2023/10/07 05:43:25;;;;;;;28.83;11.33;;;;;;;;;;4954216;29;20044;-58
2023/10/07 05:45:52;;;;;;;23.17;11.70;;;;;;;;;;4919384;29;20104;-58
2023/10/07 05:48:17;;;;;;;21.13;11.20;;;;;;;;;;4934434;29;20052;-57
2023/10/07 05:50:43;;;;;;;23.90;12.15;;;;;;;;;;4942079;29;20031;-58
2023/10/07 05:53:09;;;;;;;19.73;11.40;;;;;;;;;;4952653;29;20114;-59
2023/10/07 05:55:36;;;;;;;19.05;11.23;;;;;;;;;;4953518;29;20037;-57
2023/10/07 05:58:02;;;;;;;22.65;11.35;;;;;;;;;;4952840;29;20469;-58
2023/10/07 06:00:31;;;;;;;21.70;11.80;;;;;;;;;;4953409;29;20535;-56
2023/10/07 06:03:02;;;;;;;20.73;11.27;;;;;;;;;;4936727;29;20034;-59
2023/10/07 06:05:29;;;;;;;22.25;11.32;;;;;;;;;;4934870;29;20054;-59
2023/10/07 06:07:57;;;;;;;20.17;11.45;;;;;;;;;;4938100;29;20047;-57
2023/10/07 06:10:26;;;;;;;18.88;11.10;;;;;;;;;;4945320;29;20051;-58
2023/10/07 06:12:53;;;;;;;20.33;11.25;;;;;;;;;;4950550;29;20032;-58
2023/10/07 06:15:24;;;;;;;19.83;11.80;;;;;;;;;;4937206;29;20040;-57
2023/10/07 06:17:51;;;;;;;19.08;10.15;;;;;;;;;;4938184;29;20473;-58
2023/10/07 06:20:18;;;;;;;18.00;10.70;;;;;;;;;;4941425;29;20039;-56
2023/10/07 06:22:48;;;;;;;20.27;10.60;;;;;;;;;;4957609;29;20034;-56
2023/10/07 06:25:16;;;;;;;20.73;11.38;;;;;;;;;;4956434;29;20037;-59
2023/10/07 06:27:45;;;;;;;21.25;11.02;;;;;;;;;;4957396;29;20031;-59
2023/10/07 06:30:20;;;;;;;19.00;11.07;;;;;;;;;;4956395;29;20380;-60
2023/10/07 06:32:54;;;;;;;21.23;11.02;;;;;;;;;;4942679;29;20548;-60
2023/10/07 06:35:26;;;;;;;21.88;10.25;;;;;;;;;;4937140;29;20074;-59
2023/10/07 06:37:58;;;;;;;18.50;10.30;;;;;;;;;;4920895;29;20031;-60
2023/10/07 06:40:29;;;;;;;16.55;9.70;;;;;;;;;;4937849;29;20119;-60
2023/10/07 06:42:58;;;;;;;20.08;10.27;;;;;;;;;;4956482;29;20039;-59
2023/10/07 06:45:45;;;;;;;17.17;9.90;;;;;;;;;;4932717;29;20035;-60
2023/10/07 06:48:12;;;;;;;19.92;8.80;;;;;;;;;;4956208;29;20041;-60
2023/10/07 06:50:41;;;;;;;20.25;10.23;;;;;;;;;;4949505;29;20111;-60
2023/10/07 06:53:11;;;;;;;20.65;10.75;;;;;;;;;;4936512;29;20055;-59
2023/10/07 06:55:41;;;;;;;19.15;9.85;;;;;;;;;;4937236;29;20032;-60
2023/10/07 06:58:07;;;;;;;22.77;10.13;;;;;;;;;;4936751;29;20039;-60
2023/10/07 07:00:48;;;;;;;21.08;10.07;;;;;;;;;;4950482;29;20035;-59
2023/10/07 07:03:17;;;;;;;20.92;11.00;;;;;;;;;;4955369;29;20796;-60
2023/10/07 07:05:45;;;;;;;17.70;9.55;;;;;;;;;;4953846;29;20043;-61
2023/10/07 07:08:11;;;;;;;14.68;9.77;;;;;;;;;;4936401;29;20380;-61
2023/10/07 07:10:37;;;;;;;22.58;10.52;;;;;;;;;;4936836;29;20055;-60
2023/10/07 07:13:12;;;;;;;17.25;8.88;;;;;;;;;;4919284;29;20032;-61
2023/10/07 07:15:38;;;;;;;17.20;8.13;;;;;;;;;;4920362;29;20039;-60
2023/10/07 07:23:20;;;;;;;18.63;9.52;;;;;;;;;;4935878;29;20031;-58
2023/10/07 07:28:31;;;;;;;16.75;8.70;;;;;;;;;;4930044;29;20035;-61
2023/10/07 07:30:59;;;;;;;16.17;8.95;;;;;;;;;;4938224;29;20092;-60
2023/10/07 07:33:31;;;;;;;18.73;9.07;;;;;;;;;;4936003;29;20084;-60
2023/10/07 07:35:57;;;;;;;16.38;8.95;;;;;;;;;;4936848;29;20034;-61
2023/10/07 07:38:43;;;;;;;17.27;10.00;;;;;;;;;;4935875;29;20028;-59
2023/10/07 07:41:09;;;;;;;19.45;9.23;;;;;;;;;;4936009;29;20032;-61
2023/10/07 07:43:42;;;;;;;17.73;8.85;;;;;;;;;;4936062;29;20036;-61
2023/10/07 07:46:18;;;;;;;20.08;9.18;;;;;;;;;;4934675;29;20123;-59
2023/10/07 07:48:50;;;;;;;17.55;8.77;;;;;;;;;;4919649;29;20032;-60
2023/10/07 07:51:17;;;;;;;18.92;9.45;;;;;;;;;;4934206;29;20036;-62
2023/10/07 07:53:46;;;;;;;21.45;8.63;;;;;;;;;;4936165;29;20034;-60
2023/10/07 07:56:15;;;;;;;17.80;8.13;;;;;;;;;;4935523;29;20429;-59
2023/10/07 07:58:47;;;;;;;15.18;7.93;;;;;;;;;;4935293;29;20087;-59
2023/10/07 08:01:18;;;;;;;14.27;7.57;;;;;;;;;;4934935;29;20040;-59
2023/10/07 08:03:44;;;;;;;16.38;7.38;;;;;;;;;;4934731;29;20067;-60
2023/10/07 08:06:19;;;;;;;16.08;6.95;;;;;;;;;;4928529;29;20039;-59
2023/10/07 08:08:46;;;;;;;12.75;6.63;;;;;;;;;;4935173;29;20031;-61
2023/10/07 08:11:14;;;;;;;15.50;6.82;;;;;;;;;;4934062;29;20051;-60
2023/10/07 08:13:40;;;;;;;17.60;7.35;;;;;;;;;;4935736;29;20024;-61
2023/10/07 08:16:06;;;;;;;11.50;6.10;;;;;;;;;;4934565;29;20034;-60
2023/10/07 08:18:32;;;;;;;13.45;6.68;;;;;;;;;;4935587;29;20521;-59
2023/10/07 08:21:13;;;;;;;13.10;6.90;;;;;;;;;;4935666;29;20115;-59
2023/10/07 08:23:44;;;;;;;14.48;6.10;;;;;;;;;;4938235;29;20035;-58
2023/10/07 08:26:11;;;;;;;13.10;6.82;;;;;;;;;;4917693;29;21164;-59
2023/10/07 08:28:42;;;;;;;14.38;6.32;;;;;;;;;;4917697;29;20118;-59
2023/10/07 08:31:17;;;;;;;15.93;7.18;;;;;;;;;;4932870;29;20032;-60
2023/10/07 08:33:47;;;;;;;13.15;6.38;;;;;;;;;;4931718;29;20062;-60
2023/10/07 08:36:13;;;;;;;15.45;6.65;;;;;;;;;;4934744;29;20031;-61
2023/10/07 08:38:43;;;;;;;12.52;5.80;;;;;;;;;;4935273;29;20441;-60
2023/10/07 08:41:10;;;;;;;14.07;6.55;;;;;;;;;;4934793;29;20031;-57
2023/10/07 08:43:45;;;;;;;13.00;6.32;;;;;;;;;;4933512;29;20050;-58
2023/10/07 08:46:16;;;;;;;15.55;6.43;;;;;;;;;;4944752;29;20031;-58
2023/10/07 08:48:50;;;;;;;15.55;6.50;;;;;;;;;;4940099;29;20039;-58
2023/10/07 08:51:24;;;;;;;12.02;5.75;;;;;;;;;;4948497;29;20036;-54
2023/10/07 08:53:57;;;;;;;11.13;5.70;;;;;;;;;;4935159;29;20027;-58
2023/10/07 08:56:27;;;;;;;12.45;5.90;;;;;;;;;;4908516;29;20038;-58
2023/10/07 08:58:53;;;;;;;13.20;5.80;;;;;;;;;;4935074;29;20031;-57
2023/10/07 09:01:19;;;;;;;13.05;5.60;;;;;;;;;;4934576;29;20062;-57
2023/10/07 09:03:47;;;;;;;13.05;6.10;;;;;;;;;;4935291;29;20049;-57
2023/10/07 09:06:13;;;;;;;10.75;5.25;;;;;;;;;;4934408;29;20032;-56
2023/10/07 09:08:39;;;;;;;10.90;5.55;;;;;;;;;;4934509;29;20036;-58
2023/10/07 09:11:08;;;;;;;11.43;5.25;;;;;;;;;;4933984;29;20063;-57
2023/10/07 09:13:34;;;;;;;12.52;5.35;;;;;;;;;;4935055;29;20059;-58
2023/10/07 09:16:03;;;;;;;9.82;4.80;;;;;;;;;;4936331;29;20039;-56
2023/10/07 09:18:31;;;;;;;11.13;5.07;;;;;;;;;;4934400;29;20485;-57
2023/10/07 09:20:57;;;;;;;11.10;5.10;;;;;;;;;;4934878;29;20035;-56
2023/10/07 09:23:33;;;;;;;11.70;4.63;;;;;;;;;;4917014;29;20452;-54
2023/10/07 09:26:14;;;;;;;13.20;5.28;;;;;;;;;;4917716;29;20040;-57
2023/10/07 09:28:44;;;;;;;8.57;4.25;;;;;;;;;;4919254;29;20123;-56
2023/10/07 09:31:10;;;;;;;9.43;4.57;;;;;;;;;;4923643;29;20040;-56
2023/10/07 09:33:39;;;;;;;13.20;5.43;;;;;;;;;;4915337;29;20364;-56
2023/10/07 09:41:38;;;;;;;9.48;4.50;;;;;;;;;;4894595;29;20406;-58
2023/10/07 09:44:12;;;;;;;9.38;4.53;;;;;;;;;;4934128;29;20035;-58
2023/10/07 09:46:41;;;;;;;12.73;4.47;;;;;;;;;;4933247;29;20424;-56
2023/10/07 09:49:06;;;;;;;10.20;5.05;;;;;;;;;;4933934;29;20031;-59
2023/10/07 09:51:44;;;;;;;9.95;4.45;;;;;;;;;;4934443;29;20500;-57
2023/10/07 09:54:36;;;;;;;12.68;4.80;;;;;;;;;;4933330;29;20042;-57
2023/10/07 09:57:24;;;;;;;8.93;4.28;;;;;;;;;;4934457;29;20039;-58
2023/10/07 10:03:30;;;;;;;8.63;4.10;;;;;;;;;;4934294;29;20044;-58
2023/10/07 10:06:07;;;;;;;8.68;3.80;;;;;;;;;;4933893;29;20584;-59
2023/10/07 10:08:55;;;;;;;10.45;3.78;;;;;;;;;;4931144;29;20059;-56
2023/10/07 10:11:31;;;;;;;6.65;3.47;;;;;;;;;;4932742;29;20056;-58
2023/10/07 10:17:00;;;;;;;6.90;3.42;;;;;;;;;;4880214;29;20086;-59
2023/10/07 10:19:44;;;;;;;8.15;3.92;;;;;;;;;;4934030;29;20050;-59
2023/10/07 10:22:22;;;;;;;8.68;3.58;;;;;;;;;;4940836;29;20047;-59
2023/10/07 10:24:48;;;;;;;7.32;3.50;;;;;;;;;;4919619;29;20039;-58
2023/10/07 10:27:15;;;;;;;6.75;3.25;;;;;;;;;;4933038;29;20034;-59
2023/10/07 10:29:52;;;;;;;8.07;3.40;;;;;;;;;;4933343;29;20035;-58
2023/10/07 10:32:28;;;;;;;8.50;3.72;;;;;;;;;;4936597;29;20027;-57
2023/10/07 10:35:06;;;;;;;7.80;3.30;;;;;;;;;;4919739;29;20035;-58
2023/10/07 10:37:32;;;;;;;8.80;3.25;;;;;;;;;;4933580;29;20103;-60
2023/10/07 10:40:12;;;;;;;10.30;3.50;;;;;;;;;;4933733;29;20433;-59
2023/10/07 10:42:47;;;;;;;6.03;3.20;;;;;;;;;;4934001;29;20114;-60
2023/10/07 10:45:26;;;;;;;5.68;2.88;;;;;;;;;;4933230;29;20155;-60
2023/10/07 10:47:53;;;;;;;8.27;3.03;;;;;;;;;;4933891;29;20040;-59
2023/10/07 10:50:23;;;;;;;9.73;3.53;;;;;;;;;;4932520;29;20031;-58
2023/10/07 10:52:49;;;;;;;9.18;3.28;;;;;;;;;;4918798;29;20051;-60
2023/10/07 10:55:18;;;;;;;8.00;3.53;;;;;;;;;;4936215;29;20031;-60
2023/10/07 10:57:44;;;;;;;7.80;2.90;;;;;;;;;;4937456;29;20375;-60
2023/10/07 11:00:19;;;;;;;7.35;3.10;;;;;;;;;;4936431;29;20039;-60
2023/10/07 11:02:45;;;;;;;8.88;3.00;;;;;;;;;;4937393;29;20056;-59
2023/10/07 11:05:12;;;;;;;8.38;3.15;;;;;;;;;;4936367;29;20074;-59
2023/10/07 11:07:39;;;;;;;6.43;3.05;;;;;;;;;;4936759;29;20040;-60
2023/10/07 11:10:08;;;;;;;6.45;2.55;;;;;;;;;;4946713;29;21565;-59
2023/10/07 11:12:33;;;;;;;7.13;3.30;;;;;;;;;;4937007;29;20055;-60
2023/10/07 11:15:13;;;;;;;5.55;2.95;;;;;;;;;;4937340;29;20070;-60
2023/10/07 11:17:51;;;;;;;7.07;2.80;;;;;;;;;;4948367;29;20027;-57
2023/10/07 11:20:19;;;;;;;6.22;2.97;;;;;;;;;;4936136;29;20070;-62
2023/10/07 11:22:45;;;;;;;9.25;3.20;;;;;;;;;;4935171;29;20040;-58
2023/10/07 11:25:16;;;;;;;7.22;3.10;;;;;;;;;;4919060;29;20142;-58
2023/10/07 11:27:42;;;;;;;9.63;3.10;;;;;;;;;;4936498;29;20076;-57
2023/10/07 11:30:11;;;;;;;6.15;2.90;;;;;;;;;;4936555;29;20066;-59
2023/10/07 11:32:40;;;;;;;5.90;3.03;;;;;;;;;;4936999;29;20111;-59
2023/10/07 11:35:15;;;;;;;6.63;2.97;;;;;;;;;;4953490;29;20388;-57
2023/10/07 11:37:58;;;;;;;7.78;2.85;;;;;;;;;;4955362;29;20031;-60
2023/10/07 11:40:24;;;;;;;4.80;2.75;;;;;;;;;;4937563;29;20122;-59
2023/10/07 11:42:50;;;;;;;6.10;2.70;;;;;;;;;;4944344;29;20459;-57
2023/10/07 11:45:16;;;;;;;6.93;2.92;;;;;;;;;;4940252;29;20075;-59
2023/10/07 11:47:43;;;;;;;13.02;3.00;;;;;;;;;;4937944;29;20039;-58
2023/10/07 11:50:09;;;;;;;7.25;2.90;;;;;;;;;;4948383;29;20035;-58
2023/10/07 11:52:37;;;;;;;8.18;3.33;;;;;;;;;;4949381;29;20036;-59
2023/10/07 11:55:07;;;;;;;5.63;2.95;;;;;;;;;;4934995;29;20035;-58
2023/10/07 11:57:34;;;;;;;4.27;2.30;;;;;;;;;;4935399;29;20023;-58
2023/10/07 11:59:59;;;;;;;7.38;2.90;;;;;;;;;;4935593;29;20266;-59
2023/10/07 12:02:25;;;;;;;6.63;2.90;;;;;;;;;;4932721;29;20598;-57
2023/10/07 12:04:51;;;;;;;6.00;2.70;;;;;;;;;;4935038;29;20031;-58
2023/10/07 12:07:17;;;;;;;5.70;2.70;;;;;;;;;;4934732;29;20041;-60
2023/10/07 12:09:51;;;;;;;6.18;2.42;;;;;;;;;;4935437;29;20036;-58
2023/10/07 12:12:17;;;;;;;5.53;2.10;;;;;;;;;;4932768;29;20067;-59
2023/10/07 12:14:42;;;;;;;5.82;2.50;;;;;;;;;;4935813;29;20031;-59
2023/10/07 12:17:08;;;;;;;5.50;2.67;;;;;;;;;;4935875;29;20111;-58
2023/10/07 12:19:37;;;;;;;5.55;2.63;;;;;;;;;;4934982;29;20027;-58
2023/10/07 12:22:05;;;;;;;5.70;2.70;;;;;;;;;;4932944;29;20396;-60
2023/10/07 12:24:32;;;;;;;5.20;2.47;;;;;;;;;;4920835;29;20040;-59
2023/10/07 12:26:57;;;;;;;6.32;2.55;;;;;;;;;;4899464;29;20110;-57
2023/10/07 12:29:26;;;;;;;6.65;2.80;;;;;;;;;;4915783;29;20084;-59
2023/10/07 12:31:51;;;;;;;6.68;3.20;;;;;;;;;;4916262;29;20028;-58
2023/10/07 12:34:18;;;;;;;6.50;2.80;;;;;;;;;;4915995;29;20036;-59
2023/10/07 12:36:43;;;;;;;6.07;2.80;;;;;;;;;;4916525;29;20477;-59
2023/10/07 12:39:14;;;;;;;7.30;2.92;;;;;;;;;;4934317;29;20039;-59
2023/10/07 12:41:43;;;;;;;4.90;2.72;;;;;;;;;;4918085;29;20063;-58
2023/10/07 12:44:10;;;;;;;11.75;2.90;;;;;;;;;;4945851;29;20027;-57
2023/10/07 12:46:39;;;;;;;5.43;2.78;;;;;;;;;;4924397;29;20039;-57
2023/10/07 12:49:10;;;;;;;7.50;2.80;;;;;;;;;;4934858;29;20397;-58
2023/10/07 12:51:41;;;;;;;6.00;3.00;;;;;;;;;;4934252;29;20543;-58
2023/10/07 12:54:10;;;;;;;7.32;2.85;;;;;;;;;;4935146;29;20464;-59
2023/10/07 12:56:37;;;;;;;9.15;3.22;;;;;;;;;;4917323;29;20119;-59
2023/10/07 12:59:18;;;;;;;5.55;2.65;;;;;;;;;;4937049;29;20031;-59
2023/10/07 13:01:56;;;;;;;6.75;2.80;;;;;;;;;;4934890;29;20036;-58
2023/10/07 13:04:29;;;;;;;6.35;2.38;;;;;;;;;;4934159;29;20043;-61
2023/10/07 13:07:00;;;;;;;9.25;2.97;;;;;;;;;;4934741;29;20047;-59
2023/10/07 13:09:30;;;;;;;11.95;3.30;;;;;;;;;;4933759;29;20075;-59
2023/10/07 13:11:56;;;;;;;11.13;2.93;;;;;;;;;;4917271;29;20595;-59
2023/10/07 13:14:24;;;;;;;7.70;3.17;;;;;;;;;;4934467;29;20058;-59
2023/10/07 13:16:56;;;;;;;6.10;2.92;;;;;;;;;;4935030;29;20516;-58
2023/10/07 13:19:26;;;;;;;8.45;3.38;;;;;;;;;;4934255;29;20039;-60
2023/10/07 13:21:52;;;;;;;6.28;2.75;;;;;;;;;;4934857;29;20036;-61
2023/10/07 13:24:18;;;;;;;7.75;3.47;;;;;;;;;;4933238;29;20536;-60
2023/10/07 13:26:44;;;;;;;9.55;3.33;;;;;;;;;;4935269;29;20039;-59
2023/10/07 13:29:10;;;;;;;5.28;2.90;;;;;;;;;;4934043;29;20244;-56
2023/10/07 13:31:36;;;;;;;9.05;3.55;;;;;;;;;;4952811;29;20163;-58
2023/10/07 13:34:04;;;;;;;8.23;3.78;;;;;;;;;;4936543;29;20027;-58
2023/10/07 13:36:29;;;;;;;8.15;3.50;;;;;;;;;;4953137;29;20046;-58
2023/10/07 13:38:57;;;;;;;6.35;2.90;;;;;;;;;;4936606;29;20488;-59
2023/10/07 13:41:23;;;;;;;7.93;3.13;;;;;;;;;;4921240;29;20048;-59
2023/10/07 13:43:49;;;;;;;7.38;3.20;;;;;;;;;;4934519;29;20469;-59
2023/10/07 13:46:14;;;;;;;10.90;4.10;;;;;;;;;;4953278;29;20041;-58
2023/10/07 13:48:42;;;;;;;13.38;4.00;;;;;;;;;;4935824;29;20071;-58
2023/10/07 13:51:07;;;;;;;11.18;3.60;;;;;;;;;;4953367;29;20062;-59
2023/10/07 13:54:21;;;;;;;7.97;3.50;;;;;;;;;;4951015;29;20059;-59
2023/10/07 13:56:49;;;;;;;6.57;3.28;;;;;;;;;;4952216;29;20035;-59
2023/10/07 13:59:15;;;;;;;7.00;3.50;;;;;;;;;;4940089;29;20063;-59
2023/10/07 14:01:44;;;;;;;7.10;3.38;;;;;;;;;;4935559;29;20023;-59
2023/10/07 14:04:14;;;;;;;8.70;3.33;;;;;;;;;;4953437;29;20388;-57
2023/10/07 14:06:41;;;;;;;7.57;3.47;;;;;;;;;;4952812;29;20039;-59
2023/10/07 14:09:15;;;;;;;6.35;3.15;;;;;;;;;;4953401;29;20110;-58
2023/10/07 14:11:44;;;;;;;7.97;3.40;;;;;;;;;;4952837;29;20062;-58
2023/10/07 14:14:10;;;;;;;10.93;3.70;;;;;;;;;;4951490;29;20039;-60
2023/10/07 14:16:36;;;;;;;9.85;3.42;;;;;;;;;;4952323;29;20709;-60
2023/10/07 14:19:01;;;;;;;8.60;3.88;;;;;;;;;;4951858;29;20399;-58
2023/10/07 14:21:26;;;;;;;8.80;3.72;;;;;;;;;;4952005;29;20031;-59
2023/10/07 14:23:52;;;;;;;8.57;3.78;;;;;;;;;;4936271;29;20060;-58
2023/10/07 14:26:17;;;;;;;10.43;3.83;;;;;;;;;;4928682;29;20039;-59
2023/10/07 14:28:44;;;;;;;7.68;3.20;;;;;;;;;;4936901;29;20031;-58
2023/10/07 14:31:12;;;;;;;6.25;3.10;;;;;;;;;;4937643;29;20027;-59
2023/10/07 14:33:40;;;;;;;7.72;2.90;;;;;;;;;;4919745;29;20032;-57
2023/10/07 14:36:09;;;;;;;10.07;3.30;;;;;;;;;;4937508;29;20122;-57
2023/10/07 14:38:39;;;;;;;8.20;3.13;;;;;;;;;;4936901;29;20043;-58
2023/10/07 14:41:08;;;;;;;10.93;3.80;;;;;;;;;;4937022;29;20040;-58
2023/10/07 14:43:36;;;;;;;7.43;3.15;;;;;;;;;;4936859;29;20028;-59
2023/10/07 14:46:04;;;;;;;7.80;3.35;;;;;;;;;;4937450;29;20114;-58
2023/10/07 14:48:32;;;;;;;8.98;3.25;;;;;;;;;;4936498;29;20091;-59
2023/10/07 14:51:05;;;;;;;7.07;3.55;;;;;;;;;;4937405;29;20032;-58
2023/10/07 14:53:33;;;;;;;7.90;3.35;;;;;;;;;;4934259;29;20036;-58
2023/10/07 14:56:00;;;;;;;8.82;3.25;;;;;;;;;;4919287;29;20043;-58
2023/10/07 14:58:29;;;;;;;11.18;4.22;;;;;;;;;;4936552;29;20044;-58
2023/10/07 15:00:55;;;;;;;8.23;3.92;;;;;;;;;;4946109;29;20421;-59
2023/10/07 15:03:22;;;;;;;7.55;3.67;;;;;;;;;;4955559;29;20515;-59
2023/10/07 15:05:48;;;;;;;10.30;4.20;;;;;;;;;;4943009;29;20358;-59
2023/10/07 15:08:16;;;;;;;7.95;3.80;;;;;;;;;;4919789;29;20123;-60
2023/10/07 15:10:48;;;;;;;9.13;3.65;;;;;;;;;;4937309;29;20056;-59
2023/10/07 15:13:13;;;;;;;7.97;3.60;;;;;;;;;;4921059;29;20032;-59
2023/10/07 15:15:40;;;;;;;10.43;3.50;;;;;;;;;;4913052;29;20036;-59
2023/10/07 15:18:12;;;;;;;8.85;3.85;;;;;;;;;;4932904;29;20152;-59
2023/10/07 15:20:41;;;;;;;6.45;3.45;;;;;;;;;;4902801;29;20036;-58
2023/10/07 15:23:09;;;;;;;8.25;3.67;;;;;;;;;;4914625;29;20032;-59
2023/10/07 15:25:47;;;;;;;10.05;3.50;;;;;;;;;;4896528;29;20039;-59
2023/10/07 15:28:15;;;;;;;9.80;3.70;;;;;;;;;;4897192;29;20080;-59
2023/10/07 15:30:45;;;;;;;10.52;3.83;;;;;;;;;;4898000;29;20037;-59
2023/10/07 15:33:14;;;;;;;9.05;3.70;;;;;;;;;;4898788;29;20386;-59